Lizton, IN (46149)

4:58 AM EDT on March 30, 2017 (GMT -0400)
500E @ 1000N - Pittsboro | | Change Station

Elev 951 ft 39.91 °N, 86.44 °W | Updated 46 seconds ago

Overcast
Overcast
52.9 °F
Feels Like 52.9 °F
N
16.1
Wind Variable Wind from ESE
Gusts 17.0 mph

Today
High -- | Low -- °F
--% Chance of Precip.
Yesterday
High -- | Low -- °F
Precip. -- in
Pressure 29.81 in
Visibility 10.0 miles
Clouds Overcast 6000 ft
Dew Point 44 °F
Humidity 73%
Rainfall 0.00 in
Snow Depth Not available.
7:32 AM 8:08 PM
Waxing Crescent, 7% visible
METAR KEYE 300853Z AUTO 11007KT 10SM OVC060 12/06 A2982 RMK AO2 LTG DSNT NE SLP095 60000 T01220061 58030
Pressure 29.81 in
Visibility 10.0 miles
Clouds Overcast 6000 ft
Dew Point 44 °F
Humidity 73%
Rainfall 0.00 in
Snow Depth Not available.
7:32 AM 8:08 PM
Waxing Crescent, 7% visible
METAR KEYE 300853Z AUTO 11007KT 10SM OVC060 12/06 A2982 RMK AO2 LTG DSNT NE SLP095 60000 T01220061 58030

Get Severe Weather Alerts

Thanks for signing up!

Be on the lookout for a verification email in your inbox.

You'll start receiving the daily forecast at 8 AM.

×

10-Day Weather Forecast

Almanac

Astronomy

Mar. 30, 2017 Rise Set
Actual Time
Civil Twilight
Nautical Twilight
Astronomical Twilight
Moon
Length of Visible Light
Length of Day
Tomorrow will be .
, % of the Moon is Illuminated

Today's Extremes

State Highs State Lows

Community

WunderPhotos

Upload Photos

1,962,540 photos uploaded!

WunderBlog® & News

Nearby

Air Quality

  Air Quality AQ Index Pollutant
Not available.

Snow Depth

Station Depth Elevation

Earthquake Activity

City Distance Mag. Time & Date
Minimum magnitude displayed is 2.5.

Earthquake Activity

City Distance Mag. Time & Date
Minimum magnitude displayed is 2.5.

Coastal Water Temperatures

Place Temperature

Stations

Nearby Weather Stations

Station Location Temp. Windchill Dew Point Humidity Wind Precip. Elev Updated Type
                   

Watches & Warnings

There are currently no watches in effect.